Time;durP1;ratioP1;P1;durP2;ratioP2;P2;SDS_P1;SDS_P2;PMS_P1;PMS_P2;Temp;Humidity;BMP_temperature;BMP_pressure;BME280_temperature;BME280_humidity;BME280_pressure;Samples;Min_cycle;Max_cycle;Signal;HPM_P1;HPM_P2
2023/06/27 00:02:15;;;;;;;5.95;2.80;;;18.00;99.90;;;;;;4999267;28;20258;-85
2023/06/27 00:04:42;;;;;;;9.48;3.42;;;17.90;99.90;;;;;;4999306;28;20306;-88
2023/06/27 00:07:10;;;;;;;7.18;2.88;;;17.90;99.90;;;;;;5000432;28;20255;-88
2023/06/27 00:09:38;;;;;;;6.10;3.25;;;17.90;99.90;;;;;;4999541;28;20214;-87
2023/06/27 00:12:06;;;;;;;6.93;3.00;;;17.90;99.90;;;;;;4998999;28;20575;-83
2023/06/27 00:14:37;;;;;;;4.70;2.53;;;17.90;99.90;;;;;;4998874;28;20207;-84
2023/06/27 00:17:07;;;;;;;7.28;2.65;;;17.90;99.90;;;;;;4999267;28;20203;-82
2023/06/27 00:19:34;;;;;;;6.75;2.60;;;17.90;99.90;;;;;;4998208;28;20601;-84
2023/06/27 00:22:09;;;;;;;4.47;2.33;;;17.90;99.90;;;;;;4998020;28;20239;-87
2023/06/27 00:24:36;;;;;;;4.20;2.38;;;17.90;99.90;;;;;;5002474;28;20392;-84
2023/06/27 00:27:03;;;;;;;5.45;2.13;;;17.90;99.90;;;;;;5021354;28;20538;-83
2023/06/27 00:29:30;;;;;;;3.78;2.00;;;17.90;99.90;;;;;;5037913;28;20281;-83
2023/06/27 00:31:59;;;;;;;5.55;2.03;;;17.90;99.90;;;;;;5037779;28;20227;-83
2023/06/27 00:34:26;;;;;;;2.83;1.85;;;17.90;99.90;;;;;;5037358;28;20237;-83
2023/06/27 00:36:53;;;;;;;4.70;1.92;;;17.80;99.90;;;;;;5024666;28;20211;-84
2023/06/27 00:39:20;;;;;;;5.22;1.60;;;17.90;99.90;;;;;;5017768;28;20207;-84
2023/06/27 00:41:47;;;;;;;3.55;1.58;;;17.80;99.90;;;;;;5017746;28;20203;-86
2023/06/27 00:44:14;;;;;;;2.20;1.42;;;17.80;99.90;;;;;;5018034;28;20191;-84
2023/06/27 00:46:42;;;;;;;5.43;1.50;;;17.80;99.90;;;;;;5017557;28;20546;-84
2023/06/27 00:49:11;;;;;;;4.57;1.83;;;17.70;99.90;;;;;;5017628;28;20223;-82
2023/06/27 00:51:40;;;;;;;3.13;1.17;;;17.70;99.90;;;;;;5018021;28;20488;-85
2023/06/27 00:54:08;;;;;;;3.65;1.77;;;17.70;99.90;;;;;;5028748;28;20230;-83
2023/06/27 00:56:36;;;;;;;3.78;1.48;;;17.70;99.90;;;;;;5037810;28;20241;-83
2023/06/27 00:59:03;;;;;;;2.65;1.50;;;17.60;99.90;;;;;;5033673;28;20808;-85
2023/06/27 01:01:30;;;;;;;3.50;1.90;;;17.60;99.90;;;;;;5017755;28;20198;-86
2023/06/27 01:03:57;;;;;;;2.05;1.13;;;17.60;99.90;;;;;;5017481;28;20536;-85
2023/06/27 01:06:31;;;;;;;2.58;1.52;;;17.50;99.90;;;;;;5017698;28;20246;-84
2023/06/27 01:09:03;;;;;;;3.53;1.60;;;17.50;99.90;;;;;;5016815;28;20301;-86
2023/06/27 01:11:35;;;;;;;2.75;1.23;;;17.50;99.90;;;;;;5017958;28;20580;-84
2023/06/27 01:14:05;;;;;;;4.88;1.27;;;17.50;99.90;;;;;;5017107;28;20191;-85
2023/06/27 01:16:34;;;;;;;3.67;1.13;;;17.40;99.90;;;;;;5025391;28;20217;-88
2023/06/27 01:19:02;;;;;;;3.20;1.63;;;17.40;99.90;;;;;;5037730;28;20281;-88
2023/06/27 01:21:33;;;;;;;1.70;1.10;;;17.40;99.90;;;;;;5037761;28;20217;-86
2023/06/27 01:24:03;;;;;;;2.10;1.33;;;17.40;99.90;;;;;;5037140;28;20229;-88
2023/06/27 01:26:30;;;;;;;1.23;0.82;;;17.30;99.90;;;;;;5037193;28;20230;-88
2023/06/27 01:28:57;;;;;;;4.57;1.35;;;17.30;99.90;;;;;;5036364;28;20631;-84
2023/06/27 01:31:30;;;;;;;3.05;1.30;;;17.30;99.90;;;;;;5013617;28;20222;-85
2023/06/27 01:34:07;;;;;;;1.80;1.05;;;17.40;99.90;;;;;;4998278;28;20185;-83
2023/06/27 01:36:42;;;;;;;1.73;1.10;;;17.40;99.90;;;;;;4997642;28;20628;-86
2023/06/27 01:39:16;;;;;;;1.70;0.95;;;17.40;99.90;;;;;;4998090;28;20196;-85
2023/06/27 01:41:48;;;;;;;2.05;1.13;;;17.40;99.90;;;;;;4997678;28;20294;-87
2023/06/27 01:44:16;;;;;;;3.53;1.48;;;17.50;99.90;;;;;;4997690;28;20204;-85
2023/06/27 01:46:44;;;;;;;1.85;1.10;;;17.50;99.90;;;;;;4998190;28;20738;-87
2023/06/27 01:49:11;;;;;;;2.10;1.08;;;17.50;99.90;;;;;;4997727;28;20234;-87
2023/06/27 01:51:40;;;;;;;1.58;0.80;;;17.50;99.90;;;;;;4997704;28;20218;-89
2023/06/27 01:54:07;;;;;;;1.58;1.10;;;17.50;99.90;;;;;;4997469;28;20200;-87
2023/06/27 01:56:35;;;;;;;1.30;0.90;;;17.50;99.90;;;;;;5016505;28;20508;-86
2023/06/27 01:59:02;;;;;;;2.60;1.00;;;17.50;99.90;;;;;;5005402;28;20609;-87
2023/06/27 02:01:29;;;;;;;2.17;1.00;;;17.40;99.90;;;;;;4997948;28;20222;-90
2023/06/27 02:03:56;;;;;;;2.95;1.10;;;17.40;99.90;;;;;;4997722;28;20196;-89
2023/06/27 02:06:23;;;;;;;4.80;1.13;;;17.40;99.90;;;;;;4997482;28;20601;-83
2023/06/27 02:08:50;;;;;;;1.13;0.80;;;17.40;99.90;;;;;;5030051;28;20219;-88
2023/06/27 02:11:17;;;;;;;3.60;1.10;;;17.40;99.90;;;;;;5036690;28;20233;-89
2023/06/27 02:13:45;;;;;;;2.05;1.00;;;17.40;99.90;;;;;;5016742;28;20287;-87
2023/06/27 02:16:12;;;;;;;1.80;1.13;;;17.40;99.90;;;;;;4996947;28;20522;-84
2023/06/27 02:18:39;;;;;;;3.40;1.15;;;17.40;99.90;;;;;;4997411;28;20200;-87
2023/06/27 02:21:06;;;;;;;1.73;0.85;;;17.40;99.90;;;;;;4997107;28;20789;-89
2023/06/27 02:23:33;;;;;;;2.47;1.10;;;17.40;99.90;;;;;;4997244;28;20263;-87
2023/06/27 02:26:03;;;;;;;2.08;1.15;;;17.40;99.90;;;;;;4996400;28;20287;-88
2023/06/27 02:28:30;;;;;;;1.38;1.17;;;17.40;99.90;;;;;;4996470;28;20231;-84
2023/06/27 02:30:58;;;;;;;2.55;1.13;;;17.30;99.90;;;;;;4996534;28;20194;-88
2023/06/27 02:33:25;;;;;;;2.38;1.13;;;17.30;99.90;;;;;;4996324;28;20749;-84
2023/06/27 02:35:52;;;;;;;3.35;1.10;;;17.30;99.90;;;;;;5007167;28;20225;-84
2023/06/27 02:38:19;;;;;;;2.95;1.30;;;17.30;99.90;;;;;;5017312;28;20299;-87
2023/06/27 02:40:47;;;;;;;4.70;1.25;;;17.30;99.90;;;;;;5017224;28;20282;-86
2023/06/27 02:43:14;;;;;;;2.15;1.10;;;17.30;99.90;;;;;;5017441;28;20206;-88
2023/06/27 02:45:41;;;;;;;3.28;1.20;;;17.30;99.90;;;;;;5000897;28;20212;-89
2023/06/27 02:48:10;;;;;;;2.58;1.10;;;17.20;99.90;;;;;;4996361;28;20738;-88
2023/06/27 02:50:37;;;;;;;2.53;1.35;;;17.20;99.90;;;;;;4996066;28;20243;-85
2023/06/27 02:53:04;;;;;;;2.97;1.40;;;17.20;99.90;;;;;;4999734;28;20288;-88
2023/06/27 02:55:31;;;;;;;2.40;1.20;;;17.20;99.90;;;;;;5016026;28;20250;-84
2023/06/27 02:57:58;;;;;;;3.05;1.38;;;17.20;99.90;;;;;;5016134;28;20265;-85
2023/06/27 03:00:25;;;;;;;2.80;1.38;;;17.20;99.90;;;;;;5000715;28;20600;-85
2023/06/27 03:02:52;;;;;;;3.05;1.30;;;17.20;99.90;;;;;;4996351;28;20254;-88
2023/06/27 03:05:21;;;;;;;3.08;1.30;;;17.20;99.90;;;;;;4996285;28;20226;-90
2023/06/27 03:07:48;;;;;;;3.22;1.65;;;17.20;99.90;;;;;;4995701;28;20255;-89
2023/06/27 03:10:15;;;;;;;3.10;1.20;;;17.20;99.90;;;;;;4996213;28;20536;-84
2023/06/27 03:12:41;;;;;;;3.55;1.60;;;17.20;99.90;;;;;;4996126;28;20243;-90
2023/06/27 03:15:09;;;;;;;3.92;1.23;;;17.20;99.90;;;;;;4996220;28;20283;-90
2023/06/27 03:17:36;;;;;;;3.00;1.30;;;17.20;99.90;;;;;;4996239;28;20192;-87
2023/06/27 03:20:04;;;;;;;2.75;1.13;;;17.20;99.90;;;;;;4996267;28;20282;-88
2023/06/27 03:22:33;;;;;;;2.33;1.33;;;17.20;99.90;;;;;;4996269;28;20204;-86
2023/06/27 03:24:59;;;;;;;5.07;1.40;;;17.30;99.90;;;;;;5002992;28;20246;-86
2023/06/27 03:27:26;;;;;;;3.92;1.40;;;17.30;99.90;;;;;;5015803;28;20205;-87
2023/06/27 03:29:53;;;;;;;2.67;1.20;;;17.30;99.90;;;;;;5015284;28;20226;-85
2023/06/27 03:32:20;;;;;;;4.00;1.80;;;17.30;99.90;;;;;;5015644;28;20559;-86
2023/06/27 03:34:47;;;;;;;3.15;1.65;;;17.30;99.90;;;;;;5015695;28;20242;-87
2023/06/27 03:37:15;;;;;;;3.60;1.42;;;17.30;99.90;;;;;;5015180;28;20288;-85
2023/06/27 03:39:43;;;;;;;4.05;1.30;;;17.40;99.90;;;;;;5014859;28;20261;-84
2023/06/27 03:42:10;;;;;;;4.13;1.42;;;17.40;99.90;;;;;;5014494;28;20272;-83
2023/06/27 03:44:38;;;;;;;3.90;1.40;;;17.40;99.90;;;;;;5015059;28;20197;-85
2023/06/27 03:47:06;;;;;;;3.08;1.45;;;17.40;99.90;;;;;;5014759;28;20203;-83
2023/06/27 03:49:33;;;;;;;3.70;1.30;;;17.50;99.90;;;;;;5020631;28;20257;-89
2023/06/27 03:52:00;;;;;;;6.50;1.65;;;17.40;99.90;;;;;;5035271;28;20210;-88
2023/06/27 03:54:27;;;;;;;2.88;1.55;;;17.50;99.90;;;;;;5035011;28;20226;-86
2023/06/27 03:56:56;;;;;;;4.63;1.42;;;17.60;99.90;;;;;;5015393;28;20219;-88
2023/06/27 03:59:23;;;;;;;3.17;1.60;;;17.60;99.90;;;;;;5019302;28;20206;-88
2023/06/27 04:01:50;;;;;;;3.00;1.05;;;17.70;99.90;;;;;;5034425;28;20234;-86
2023/06/27 04:04:17;;;;;;;4.68;1.65;;;17.70;99.90;;;;;;5019345;28;20211;-86
2023/06/27 04:06:44;;;;;;;3.53;1.52;;;17.70;99.90;;;;;;5014026;28;20238;-90
2023/06/27 04:09:11;;;;;;;3.15;1.58;;;17.80;99.90;;;;;;5013615;28;20219;-84
2023/06/27 04:11:38;;;;;;;3.15;1.20;;;17.80;99.90;;;;;;5014013;28;20298;-89
2023/06/27 04:14:06;;;;;;;1.77;1.13;;;17.80;99.90;;;;;;5023615;28;20668;-88
2023/06/27 04:16:33;;;;;;;3.35;1.40;;;17.80;99.90;;;;;;5035595;28;20285;-89
2023/06/27 04:19:00;;;;;;;4.88;1.42;;;17.80;99.90;;;;;;5034951;28;20218;-91
2023/06/27 04:21:27;;;;;;;2.53;1.27;;;17.90;99.90;;;;;;5035478;28;20187;-89
2023/06/27 04:23:56;;;;;;;5.78;1.58;;;17.90;99.90;;;;;;5024243;28;20203;-91
2023/06/27 04:26:24;;;;;;;7.88;1.73;;;18.00;99.90;;;;;;5013450;28;20246;-90
2023/06/27 04:28:51;;;;;;;5.30;1.77;;;18.00;99.90;;;;;;5013796;28;20920;-84
2023/06/27 04:31:19;;;;;;;2.15;1.58;;;18.00;99.90;;;;;;5014269;28;20607;-88
2023/06/27 04:33:47;;;;;;;5.07;1.58;;;18.10;99.90;;;;;;5015285;28;20203;-89
2023/06/27 04:36:15;;;;;;;3.72;1.88;;;18.10;99.90;;;;;;5015189;28;20211;-86
2023/06/27 04:38:44;;;;;;;4.10;1.70;;;18.10;99.90;;;;;;5014658;28;20202;-89
2023/06/27 04:41:12;;;;;;;7.53;1.90;;;18.00;99.90;;;;;;5015042;28;20204;-86
2023/06/27 04:43:40;;;;;;;3.88;1.52;;;18.00;99.90;;;;;;5015305;28;20658;-88
2023/06/27 04:46:07;;;;;;;2.90;1.60;;;18.00;99.90;;;;;;5018382;28;20200;-88
2023/06/27 04:48:35;;;;;;;3.83;1.58;;;18.00;99.90;;;;;;5018470;28;20234;-88
2023/06/27 04:51:03;;;;;;;3.45;1.73;;;18.00;99.90;;;;;;5018952;28;20196;-88
2023/06/27 04:53:30;;;;;;;4.03;1.42;;;18.00;99.90;;;;;;5018642;28;20268;-88
2023/06/27 04:55:57;;;;;;;3.22;1.45;;;18.00;99.90;;;;;;5018379;28;20729;-90
2023/06/27 04:58:24;;;;;;;3.10;1.40;;;18.00;99.90;;;;;;5018716;28;20191;-89
2023/06/27 05:00:52;;;;;;;3.33;1.40;;;18.00;99.90;;;;;;5017941;28;20549;-86
2023/06/27 05:03:20;;;;;;;3.90;1.42;;;18.10;99.90;;;;;;5017712;28;20206;-88
2023/06/27 05:05:49;;;;;;;2.95;1.35;;;18.10;99.90;;;;;;5035367;28;20289;-89
2023/06/27 05:08:16;;;;;;;3.35;1.15;;;18.10;99.90;;;;;;5035513;28;20571;-87
2023/06/27 05:10:43;;;;;;;3.40;1.15;;;18.10;99.90;;;;;;5018832;28;20207;-88
2023/06/27 05:13:10;;;;;;;3.95;1.42;;;18.20;99.90;;;;;;5017746;28;20208;-85
2023/06/27 05:15:37;;;;;;;2.58;1.27;;;18.20;99.90;;;;;;5017698;28;20207;-87
2023/06/27 05:18:24;;;;;;;8.45;1.75;;;18.30;99.90;;;;;;5017557;28;20207;-89
2023/06/27 05:20:52;;;;;;;5.47;1.50;;;18.30;99.90;;;;;;5017429;28;20660;-86
2023/06/27 05:23:20;;;;;;;2.72;1.40;;;18.30;99.90;;;;;;5017725;28;20235;-85
2023/06/27 05:25:48;;;;;;;4.13;1.20;;;18.30;99.90;;;;;;5017456;28;20290;-87
2023/06/27 05:28:15;;;;;;;3.28;1.38;;;18.40;99.90;;;;;;5017084;28;20203;-86
2023/06/27 05:30:42;;;;;;;3.28;1.10;;;18.40;99.90;;;;;;5017452;28;20195;-88
2023/06/27 05:33:09;;;;;;;3.28;1.13;;;18.50;99.90;;;;;;5032005;28;20253;-88
2023/06/27 05:35:36;;;;;;;7.13;1.50;;;18.60;99.90;;;;;;5036769;28;20202;-89
2023/06/27 05:38:06;;;;;;;3.70;1.02;;;18.60;99.90;;;;;;5021492;28;20258;-86
2023/06/27 05:40:33;;;;;;;2.28;1.20;;;18.70;99.90;;;;;;5018089;28;20187;-88
2023/06/27 05:43:00;;;;;;;4.43;1.08;;;18.80;99.90;;;;;;5036866;28;20202;-88
2023/06/27 05:45:27;;;;;;;2.95;1.40;;;19.00;99.90;;;;;;5037195;28;20233;-88
2023/06/27 05:47:54;;;;;;;4.15;1.33;;;19.40;99.90;;;;;;5021187;28;20302;-86
2023/06/27 05:50:21;;;;;;;4.25;1.40;;;19.70;99.90;;;;;;5017572;28;20258;-84
2023/06/27 05:52:48;;;;;;;3.75;1.30;;;20.00;99.90;;;;;;5018080;28;20204;-86
2023/06/27 05:55:16;;;;;;;5.05;1.60;;;20.30;99.90;;;;;;5018478;28;20214;-92
2023/06/27 05:57:43;;;;;;;4.30;1.52;;;20.70;99.90;;;;;;5015667;28;20606;-89
2023/06/27 06:00:13;;;;;;;4.13;1.30;;;20.80;99.90;;;;;;5017223;28;20210;-89
2023/06/27 06:02:42;;;;;;;6.10;1.67;;;21.10;99.90;;;;;;5017321;28;20203;-89
2023/06/27 06:05:11;;;;;;;3.70;1.30;;;21.30;99.90;;;;;;5017123;28;20206;-87
2023/06/27 06:07:42;;;;;;;3.95;1.33;;;21.50;99.90;;;;;;5017781;28;20286;-87
2023/06/27 06:10:10;;;;;;;3.47;1.20;;;21.60;99.90;;;;;;5031975;28;20925;-85
2023/06/27 06:12:39;;;;;;;4.40;1.20;;;21.70;99.90;;;;;;5036595;28;20278;-89
2023/06/27 06:15:07;;;;;;;5.40;1.63;;;21.70;99.90;;;;;;5037077;28;20203;-87
2023/06/27 06:17:34;;;;;;;3.75;1.15;;;21.80;99.90;;;;;;5027284;28;20679;-86
2023/06/27 06:20:01;;;;;;;3.85;1.30;;;21.80;99.90;;;;;;5016499;28;20780;-89
2023/06/27 06:22:28;;;;;;;3.55;1.52;;;21.90;99.90;;;;;;5017251;28;20214;-90
2023/06/27 06:24:55;;;;;;;4.60;1.17;;;22.10;99.90;;;;;;5032636;28;20766;-87
2023/06/27 06:27:22;;;;;;;7.40;1.45;;;22.40;99.90;;;;;;5036763;28;20614;-89
2023/06/27 06:29:50;;;;;;;4.13;1.13;;;22.70;99.90;;;;;;5018022;28;20241;-87
2023/06/27 06:32:17;;;;;;;4.32;1.55;;;23.00;99.90;;;;;;5016614;28;20600;-92
2023/06/27 06:34:44;;;;;;;2.75;1.00;;;23.10;99.90;;;;;;5016555;28;20600;-88
2023/06/27 06:37:11;;;;;;;3.63;1.40;;;23.20;99.90;;;;;;5016736;28;20209;-89
2023/06/27 06:39:38;;;;;;;4.65;1.52;;;23.40;99.90;;;;;;5016319;28;20658;-88
2023/06/27 06:42:05;;;;;;;5.85;1.75;;;23.50;99.90;;;;;;5016359;28;20596;-84
2023/06/27 06:44:32;;;;;;;7.53;1.40;;;23.80;99.90;;;;;;5015910;28;20576;-86
2023/06/27 06:47:01;;;;;;;3.85;1.42;;;23.90;99.90;;;;;;5016903;28;20238;-86
2023/06/27 06:49:27;;;;;;;2.75;1.02;;;24.20;99.90;;;;;;5016703;28;20521;-87
2023/06/27 06:51:54;;;;;;;3.08;1.08;;;24.40;99.90;;;;;;5016281;28;20203;-87
2023/06/27 06:54:21;;;;;;;2.35;1.20;;;24.60;99.90;;;;;;5016191;28;20235;-87
2023/06/27 06:56:49;;;;;;;8.20;1.50;;;24.70;99.90;;;;;;5016675;28;20284;-88
2023/06/27 06:59:16;;;;;;;4.15;1.13;;;24.80;99.90;;;;;;5016203;28;20203;-90
2023/06/27 07:01:44;;;;;;;3.53;1.13;;;24.90;99.90;;;;;;5016088;28;20650;-87
2023/06/27 07:04:12;;;;;;;3.42;1.10;;;24.70;99.90;;;;;;5016242;28;20195;-90
2023/06/27 07:06:39;;;;;;;3.13;0.98;;;24.40;99.90;;;;;;5015707;28;20234;-87
2023/06/27 07:09:06;;;;;;;4.32;1.23;;;24.30;99.90;;;;;;5015856;28;20238;-86
2023/06/27 07:11:33;;;;;;;4.82;1.20;;;24.30;99.90;;;;;;5016030;28;20203;-85
2023/06/27 07:14:00;;;;;;;4.60;1.67;;;24.40;99.90;;;;;;5015716;28;20203;-89
2023/06/27 07:16:28;;;;;;;3.95;1.50;;;24.40;99.90;;;;;;5015829;28;20203;-86
2023/06/27 07:18:55;;;;;;;3.88;1.33;;;24.70;99.90;;;;;;5017076;28;20235;-88
2023/06/27 07:21:23;;;;;;;4.80;1.00;;;24.90;99.90;;;;;;5015475;28;20272;-81
2023/06/27 07:23:51;;;;;;;4.35;1.05;;;25.00;99.90;;;;;;5015165;28;20187;-81
2023/06/27 07:26:18;;;;;;;3.40;1.38;;;25.00;99.90;;;;;;5015504;28;20238;-89
2023/06/27 07:28:45;;;;;;;3.10;1.00;;;25.00;99.90;;;;;;5025244;28;20253;-82
2023/06/27 07:31:12;;;;;;;4.03;1.20;;;25.00;99.90;;;;;;5034760;28;20621;-82
2023/06/27 07:33:39;;;;;;;2.75;1.40;;;25.10;99.90;;;;;;5034972;28;20210;-85
2023/06/27 07:36:06;;;;;;;4.22;1.10;;;25.10;99.90;;;;;;5035396;28;20194;-83
2023/06/27 07:38:34;;;;;;;3.72;1.20;;;24.90;99.90;;;;;;5020840;28;20607;-89
2023/06/27 07:41:01;;;;;;;4.05;1.45;;;25.00;99.90;;;;;;5016678;28;20285;-86
2023/06/27 07:43:28;;;;;;;3.47;1.13;;;25.10;99.90;;;;;;5015519;28;20229;-87
2023/06/27 07:45:55;;;;;;;3.83;1.02;;;25.20;99.90;;;;;;5015539;28;20202;-89
2023/06/27 07:48:22;;;;;;;3.85;1.33;;;25.10;99.90;;;;;;5027433;28;20611;-88
2023/06/27 07:50:49;;;;;;;5.32;1.60;;;25.50;99.90;;;;;;5034873;28;20234;-88
2023/06/27 07:53:16;;;;;;;2.25;1.00;;;25.40;99.90;;;;;;5035628;28;20257;-83
2023/06/27 07:55:44;;;;;;;2.92;1.30;;;25.20;99.90;;;;;;5034050;28;20302;-85
2023/06/27 07:58:11;;;;;;;3.15;1.33;;;24.80;99.90;;;;;;5035678;28;20218;-86
2023/06/27 08:00:38;;;;;;;5.88;1.38;;;24.50;99.90;;;;;;5035329;28;20553;-83
2023/06/27 08:03:05;;;;;;;3.33;1.27;;;24.30;99.90;;;;;;5034385;28;20224;-83
2023/06/27 08:05:34;;;;;;;3.95;1.17;;;24.00;99.90;;;;;;5035125;28;20190;-84
2023/06/27 08:08:02;;;;;;;4.60;1.48;;;23.80;99.90;;;;;;5034984;28;20194;-83
2023/06/27 08:10:29;;;;;;;2.92;1.15;;;23.80;99.90;;;;;;5029607;28;20246;-85
2023/06/27 08:12:57;;;;;;;3.20;1.33;;;23.70;99.90;;;;;;5015356;28;20199;-85
2023/06/27 08:15:24;;;;;;;5.68;1.48;;;23.80;99.90;;;;;;5016084;28;20571;-89
2023/06/27 08:17:51;;;;;;;2.97;1.25;;;23.60;99.90;;;;;;5013606;28;20203;-84
2023/06/27 08:20:18;;;;;;;4.28;1.35;;;23.60;99.90;;;;;;5016232;28;20199;-85
2023/06/27 08:22:45;;;;;;;3.72;1.40;;;23.50;99.90;;;;;;5018647;28;20204;-84
2023/06/27 08:25:12;;;;;;;3.00;1.30;;;23.60;99.90;;;;;;5018054;28;20316;-87
2023/06/27 08:27:39;;;;;;;2.65;1.10;;;23.30;99.90;;;;;;5018286;28;20223;-83
2023/06/27 08:30:10;;;;;;;4.00;1.30;;;23.10;99.90;;;;;;5017987;28;20515;-84
2023/06/27 08:32:37;;;;;;;4.57;1.33;;;22.90;99.90;;;;;;5033635;28;20238;-90
2023/06/27 08:35:05;;;;;;;5.13;1.20;;;22.70;99.90;;;;;;5037892;28;20369;-84
2023/06/27 08:37:33;;;;;;;2.95;1.17;;;22.70;99.90;;;;;;5030393;28;20230;-82
2023/06/27 08:40:00;;;;;;;6.30;1.25;;;22.70;99.90;;;;;;5018014;28;20286;-83
2023/06/27 08:42:31;;;;;;;4.05;1.30;;;22.60;99.90;;;;;;5017912;28;20207;-83
2023/06/27 08:44:58;;;;;;;3.92;1.30;;;22.50;99.90;;;;;;5017397;28;20203;-82
2023/06/27 08:47:27;;;;;;;2.78;1.40;;;22.40;99.90;;;;;;5018621;28;20254;-85
2023/06/27 08:50:03;;;;;;;3.97;1.20;;;22.30;99.90;;;;;;5018023;28;20519;-83
2023/06/27 08:52:34;;;;;;;3.55;1.27;;;22.30;99.90;;;;;;5017493;28;20619;-81
2023/06/27 08:55:03;;;;;;;3.15;1.42;;;22.10;99.90;;;;;;5018416;28;20203;-80
2023/06/27 08:57:33;;;;;;;5.72;1.65;;;22.10;99.90;;;;;;5018339;28;20199;-82
2023/06/27 09:00:09;;;;;;;4.00;1.48;;;22.20;99.90;;;;;;5017434;28;20278;-87
2023/06/27 09:02:39;;;;;;;4.35;1.63;;;22.30;99.90;;;;;;5018332;28;20203;-81
2023/06/27 09:05:07;;;;;;;4.97;1.60;;;22.40;99.90;;;;;;5018419;28;20485;-86
2023/06/27 09:07:35;;;;;;;4.43;1.40;;;22.40;99.90;;;;;;5018003;28;20283;-84
2023/06/27 09:10:03;;;;;;;3.58;1.63;;;22.30;99.90;;;;;;5018387;28;20310;-82
2023/06/27 09:12:32;;;;;;;3.70;1.30;;;22.20;99.90;;;;;;5017808;28;20203;-84
2023/06/27 09:14:59;;;;;;;4.53;1.25;;;22.10;99.90;;;;;;5017451;28;20615;-84
2023/06/27 09:17:26;;;;;;;6.03;1.40;;;21.90;99.90;;;;;;5017643;28;20195;-85
2023/06/27 09:19:54;;;;;;;3.55;1.30;;;21.80;99.90;;;;;;5018193;28;20226;-82
2023/06/27 09:22:23;;;;;;;2.90;1.42;;;21.70;99.90;;;;;;5017910;28;20564;-81
2023/06/27 09:24:50;;;;;;;3.80;1.35;;;21.60;99.90;;;;;;5017680;28;20235;-85
2023/06/27 09:27:30;;;;;;;3.50;1.17;;;21.50;99.90;;;;;;5017329;28;20245;-82
2023/06/27 09:30:01;;;;;;;4.20;1.42;;;21.40;99.90;;;;;;5017154;28;20291;-82
2023/06/27 09:32:28;;;;;;;4.10;1.55;;;21.40;99.90;;;;;;5017833;28;20496;-87
2023/06/27 09:34:56;;;;;;;5.30;1.52;;;21.40;99.90;;;;;;5017343;28;20199;-81
2023/06/27 09:37:30;;;;;;;4.63;1.40;;;21.40;99.90;;;;;;5017210;28;20507;-81
2023/06/27 09:39:57;;;;;;;5.13;1.52;;;21.40;99.90;;;;;;5017745;28;20211;-85
2023/06/27 09:42:25;;;;;;;3.00;1.23;;;21.50;99.90;;;;;;5022394;28;20230;-82
2023/06/27 09:44:51;;;;;;;5.55;1.38;;;21.60;99.90;;;;;;5037027;28;20215;-83
2023/06/27 09:47:18;;;;;;;7.13;1.60;;;21.60;99.90;;;;;;5037006;28;20266;-84
2023/06/27 09:49:45;;;;;;;4.65;1.58;;;21.60;99.90;;;;;;5034251;28;20205;-83
2023/06/27 09:52:14;;;;;;;5.22;1.48;;;21.60;99.90;;;;;;5017706;28;20456;-85
2023/06/27 09:54:46;;;;;;;5.65;1.42;;;21.70;99.90;;;;;;5017357;28;20350;-84
2023/06/27 09:57:15;;;;;;;4.15;1.27;;;21.70;99.90;;;;;;5016754;28;20283;-84
2023/06/27 09:59:42;;;;;;;4.85;1.40;;;21.70;99.90;;;;;;5016949;28;20204;-84
2023/06/27 10:02:13;;;;;;;4.80;1.38;;;21.60;99.90;;;;;;5017432;28;20612;-85
2023/06/27 10:04:40;;;;;;;4.10;1.42;;;21.50;99.90;;;;;;5016699;28;20227;-86
2023/06/27 10:07:09;;;;;;;6.15;1.30;;;21.50;99.90;;;;;;5016886;28;20287;-84
2023/06/27 10:09:38;;;;;;;2.78;1.02;;;21.60;99.90;;;;;;5019194;28;20237;-86
2023/06/27 10:12:08;;;;;;;4.47;1.23;;;21.60;99.90;;;;;;5036486;28;20194;-83
2023/06/27 10:14:35;;;;;;;4.45;1.45;;;21.60;99.90;;;;;;5019131;28;20261;-85
2023/06/27 10:17:03;;;;;;;5.78;1.20;;;21.70;99.90;;;;;;5017979;28;20242;-82
2023/06/27 10:19:32;;;;;;;5.85;1.80;;;21.80;99.90;;;;;;5016706;28;20235;-84
2023/06/27 10:22:00;;;;;;;4.47;1.63;;;21.80;99.90;;;;;;5016725;28;20254;-82
2023/06/27 10:24:29;;;;;;;3.30;1.20;;;21.80;99.90;;;;;;5015890;28;20291;-84
2023/06/27 10:26:59;;;;;;;3.30;1.13;;;21.90;99.90;;;;;;5015990;28;20195;-84
2023/06/27 10:29:32;;;;;;;4.53;1.35;;;22.10;99.90;;;;;;5016587;28;20230;-88
2023/06/27 10:31:59;;;;;;;4.07;1.83;;;22.10;99.90;;;;;;5016568;28;20277;-85
2023/06/27 10:34:28;;;;;;;2.83;1.30;;;22.20;99.90;;;;;;5016460;28;20223;-84
2023/06/27 10:37:00;;;;;;;4.20;1.67;;;22.10;99.90;;;;;;5016474;28;20206;-85
2023/06/27 10:39:31;;;;;;;5.93;1.88;;;22.20;99.90;;;;;;5016279;28;20233;-85
2023/06/27 10:42:04;;;;;;;3.47;1.50;;;22.30;99.90;;;;;;5015562;28;20194;-87
2023/06/27 10:44:32;;;;;;;6.10;1.83;;;22.30;99.90;;;;;;5025463;28;20236;-79
2023/06/27 10:47:34;;;;;;;4.32;1.50;;;22.40;99.90;;;;;;5035741;28;20197;-87
2023/06/27 10:50:10;;;;;;;6.68;1.83;;;22.50;99.90;;;;;;5034906;28;20206;-85
2023/06/27 10:52:38;;;;;;;5.72;1.27;;;22.40;99.90;;;;;;5035330;28;20541;-85
2023/06/27 10:55:29;;;;;;;4.78;1.60;;;22.50;99.90;;;;;;5024598;28;20213;-81
2023/06/27 10:58:06;;;;;;;11.23;2.30;;;22.60;99.90;;;;;;5001057;28;20199;-86
2023/06/27 11:00:34;;;;;;;5.90;1.67;;;22.40;99.90;;;;;;5015615;28;20218;-89
2023/06/27 11:03:04;;;;;;;5.35;1.52;;;22.40;99.90;;;;;;5015582;28;20286;-83
2023/06/27 11:05:45;;;;;;;6.80;2.03;;;22.50;99.90;;;;;;5015772;28;20269;-86
2023/06/27 11:08:15;;;;;;;8.30;2.28;;;22.60;99.90;;;;;;5016469;28;20525;-90
2023/06/27 11:10:51;;;;;;;6.45;1.90;;;22.70;99.90;;;;;;5016138;28;20259;-89
2023/06/27 11:13:21;;;;;;;6.35;2.17;;;22.80;99.90;;;;;;5015624;28;20322;-83
2023/06/27 11:15:49;;;;;;;7.63;2.35;;;22.70;99.90;;;;;;5015926;28;20199;-88
2023/06/27 11:18:17;;;;;;;5.32;1.75;;;22.70;99.90;;;;;;5015715;28;20215;-78
2023/06/27 11:20:44;;;;;;;4.40;1.40;;;22.80;99.90;;;;;;5015250;28;20243;-86
2023/06/27 11:23:14;;;;;;;5.82;1.70;;;23.00;99.90;;;;;;5015342;28;20211;-84
2023/06/27 11:25:43;;;;;;;4.70;1.75;;;23.00;99.90;;;;;;5014961;28;20281;-82
2023/06/27 11:28:11;;;;;;;4.07;1.50;;;23.20;99.90;;;;;;5015473;28;20295;-85
2023/06/27 11:30:40;;;;;;;6.40;1.67;;;23.30;99.90;;;;;;5015254;28;20215;-81
2023/06/27 11:33:08;;;;;;;4.65;1.40;;;23.40;99.90;;;;;;4997844;28;20223;-86
2023/06/27 11:35:35;;;;;;;5.10;1.70;;;23.60;99.90;;;;;;5015392;28;20210;-81
2023/06/27 11:38:07;;;;;;;8.18;2.15;;;23.60;99.90;;;;;;5015526;28;20204;-84
2023/06/27 11:40:34;;;;;;;4.07;1.33;;;23.60;99.90;;;;;;5014735;28;20615;-80
2023/06/27 11:43:02;;;;;;;4.38;1.60;;;23.70;99.90;;;;;;5014985;28;20223;-81
2023/06/27 11:45:31;;;;;;;6.80;2.00;;;23.70;99.90;;;;;;5019474;28;20293;-86
2023/06/27 11:48:00;;;;;;;6.15;1.75;;;23.50;99.90;;;;;;5034833;28;20550;-86
2023/06/27 11:50:27;;;;;;;5.03;1.38;;;23.50;99.90;;;;;;5034658;28;20661;-83
2023/06/27 11:52:56;;;;;;;3.85;1.50;;;23.50;99.90;;;;;;5034062;28;20214;-83
2023/06/27 11:55:24;;;;;;;6.25;1.77;;;23.60;99.90;;;;;;5036936;28;20468;-81
2023/06/27 11:57:54;;;;;;;5.60;1.92;;;23.70;99.90;;;;;;5038758;28;20276;-86
2023/06/27 12:00:24;;;;;;;5.97;1.67;;;23.70;99.90;;;;;;5026715;28;20213;-85
2023/06/27 12:02:52;;;;;;;5.53;1.98;;;23.80;99.90;;;;;;5018777;28;20330;-89
2023/06/27 12:05:21;;;;;;;4.13;1.38;;;23.80;99.90;;;;;;5019248;28;20734;-86
2023/06/27 12:08:01;;;;;;;6.35;1.85;;;23.90;99.90;;;;;;5019838;28;20217;-82
2023/06/27 12:10:28;;;;;;;6.95;1.90;;;24.00;99.90;;;;;;5018798;28;20202;-85
2023/06/27 12:12:56;;;;;;;3.90;1.88;;;24.00;99.90;;;;;;5018730;28;20261;-86
2023/06/27 12:15:23;;;;;;;3.88;1.60;;;23.90;99.90;;;;;;5018618;28;20187;-83
2023/06/27 12:17:58;;;;;;;5.13;1.58;;;24.00;99.90;;;;;;5033534;28;20294;-84
2023/06/27 12:20:27;;;;;;;7.35;1.95;;;24.00;99.90;;;;;;5029367;28;20237;-84
2023/06/27 12:22:54;;;;;;;7.65;1.80;;;23.80;99.90;;;;;;5018237;28;20197;-84
2023/06/27 12:25:22;;;;;;;5.07;1.63;;;23.70;99.90;;;;;;5018108;28;20612;-86
2023/06/27 12:27:49;;;;;;;3.42;1.80;;;23.60;99.90;;;;;;5019788;28;20207;-87
2023/06/27 12:30:17;;;;;;;6.60;1.83;;;23.50;99.90;;;;;;5037748;28;20206;-89
2023/06/27 12:32:44;;;;;;;4.75;1.80;;;23.50;99.90;;;;;;5038018;28;20222;-82
2023/06/27 12:35:17;;;;;;;5.90;1.98;;;23.40;99.90;;;;;;5035992;28;20653;-81
2023/06/27 12:37:45;;;;;;;6.38;1.95;;;23.50;99.90;;;;;;5037197;28;20230;-85
2023/06/27 12:40:15;;;;;;;5.97;2.58;;;23.60;99.90;;;;;;5038006;28;20283;-84
2023/06/27 12:42:43;;;;;;;4.10;1.60;;;23.50;99.90;;;;;;5039622;28;20203;-86
2023/06/27 12:45:11;;;;;;;3.88;2.08;;;23.40;99.90;;;;;;5038323;28;20776;-85
2023/06/27 12:47:41;;;;;;;4.75;1.77;;;23.50;99.90;;;;;;5023375;28;20281;-84
2023/06/27 12:50:10;;;;;;;6.32;1.90;;;23.50;99.90;;;;;;5019320;28;20195;-91
2023/06/27 12:52:37;;;;;;;9.27;2.45;;;23.60;99.90;;;;;;5019201;28;20269;-89
2023/06/27 12:55:06;;;;;;;3.33;1.77;;;23.60;99.90;;;;;;5018794;28;20535;-86